Latest Coastal Weather Observations for Low Isles

IDQ60701

Issued at 3:43 am EST Tuesday 26 July 2016 (issued every 10 minutes, with the page automatically refreshed every 10 minutes)

About coastal observations | Map of coastal stations | Coastal observations for QLD | Marine services | Other Formats
Station Details ID: 031037 Name: LOW ISLES LIGHTHOUSE Lat: -16.38 Lon: 145.56 Height: 2.9 m
Data from the previous 72 hours. | See also: Recent months at Low Isles
Date/Time
EST
Temp
°C
Wind Pressure Rain since
9am
mm
Weather Cloud Vis
km
Sea
Height
m
Swell
Dir  Spd
kts
Gust
kts
hPa Trend Height
m
Period
s
Dir
26/03:30am 23.7 SSE 17 20 1014.0 - 0.0 - - - - - - -
26/03:00am 23.7 SSE 15 18 1014.2 - 0.0 - - - - - - -
26/02:30am 23.7 SSE 16 18 1014.6 - 0.0 - - - - - - -
26/02:00am 23.6 SSE 16 19 1014.9 - 0.0 - - - - - - -
26/01:30am 23.7 SSE 17 19 1015.0 - 0.0 - - - - - - -
26/01:00am 23.8 SSE 17 19 1015.3 - 0.0 - - - - - - -
26/12:30am 23.8 SSE 15 17 1015.5 - 0.0 - - - - - - -
26/12:00am 23.8 SSE 16 18 1015.5 - 0.0 - - - - - - -
 
Date/Time
EST
Temp
°C
Wind Pressure Rain since
9am
mm
Weather Cloud Vis
km
Sea
Height
m
Swell
Dir  Spd
kts
Gust
kts
hPa Trend Height
m
Period
s
Dir
25/11:30pm 24.0 SSE 16 18 1015.7 - 0.0 - - - - - - -
25/11:00pm 24.0 SSE 16 18 1015.7 - 0.0 - - - - - - -
25/10:30pm 24.2 SE 16 19 1015.8 - 0.0 - - - - - - -
25/10:00pm 24.1 SSE 17 18 1015.7 - 0.0 - - - - - - -
25/09:30pm 24.1 SSE 16 19 1015.5 - 0.0 - - - - - - -
25/09:00pm 24.1 SE 14 17 1015.5 - 0.0 - - - - - - -
25/08:30pm 24.2 SE 14 16 1015.4 - 0.0 - - - - - - -
25/08:00pm 24.2 SE 13 15 1015.0 - 0.0 - - - - - - -
25/07:30pm 24.2 SE 12 14 1014.9 - 0.0 - - - - - - -
25/07:00pm 24.3 SE 13 15 1014.5 - 0.0 - - - - - - -
25/06:30pm 24.3 SE 11 13 1014.2 - 0.0 - - - - - - -
25/06:00pm 24.5 SE 11 14 1013.9 - 0.0 - - - - - - -
25/05:30pm 24.7 ESE 11 14 1013.9 - 0.0 - - - - - - -
25/05:00pm 25.1 ESE 11 14 1013.8 - 0.0 - - - - - - -
25/04:30pm 25.8 ESE 13 16 1013.8 - 0.0 - - - - - - -
25/04:00pm 26.0 SE 12 15 1013.9 - 0.0 - - - - - - -
25/03:30pm 26.1 SE 12 14 1013.9 - 0.0 - - - - - - -
25/03:00pm 26.5 SE 13 15 1014.0 - 0.0 - - - - - - -
25/02:30pm 26.1 SE 13 15 1014.2 - 0.0 - - - - - - -
25/02:00pm 26.4 SE 13 15 1014.6 - 0.0 - - - - - - -
25/01:30pm 25.4 SE 13 14 1014.9 - 0.0 - - - - - - -
25/01:00pm 25.8 SE 14 16 1015.5 - 0.0 - - - - - - -
25/12:30pm 25.4 SSE 15 17 1015.7 - 0.0 - - - - - - -
25/12:00pm 25.1 SSE 13 15 1015.9 - 0.0 - - - - - - -
25/11:30am 24.9 SSE 13 16 1016.4 - 0.0 - - - - - - -
25/11:00am 24.7 S 14 15 1016.6 - 0.0 - - - - - - -
25/10:30am 24.3 SSE 14 15 1016.9 - 0.0 - - - - - - -
25/10:00am 24.1 SSE 13 15 1016.8 - 0.0 - - - - - - -
25/09:30am 24.0 SSE 12 14 1016.9 - 0.0 - - - - - - -
25/09:00am 23.7 SSE 13 15 1016.5 - 0.0 Haze Mostly clear 20 - - - -
25/08:30am 23.7 SSE 13 15 1016.2 - 0.0 - - - - - - -
25/08:00am 23.5 SSE 13 15 1016.1 - 0.0 - - - - - - -
25/07:30am 23.4 SSE 13 14 1015.8 - 0.0 - - - - - - -
25/07:00am 22.7 S 10 12 1015.4 - 0.0 - - - - - - -
25/06:30am 22.8 S 9 11 1015.0 - 0.0 - - - - - - -
25/06:00am 22.7 SSW 10 12 1014.6 - 0.0 - - - - - - -
25/05:30am 22.8 SSW 10 12 1014.3 - 0.0 - - - - - - -
25/05:00am 22.9 S 9 11 1014.1 - 0.0 - - - - - - -
25/04:30am 22.8 SSW 9 10 1014.1 - 0.0 - - - - - - -
25/04:00am 23.1 S 10 12 1014.1 - 0.0 - - - - - - -
25/03:30am 23.1 S 10 13 1014.1 - 0.0 - - - - - - -
25/03:00am 23.1 SSW 10 13 1014.1 - 0.0 - - - - - - -
25/02:30am 23.2 SSW 8 10 1014.4 - 0.0 - - - - - - -
25/02:00am 23.4 S 9 11 1014.7 - 0.0 - - - - - - -
25/01:30am 23.5 S 9 10 1014.9 - 0.0 - - - - - - -
25/01:00am 23.7 S 9 11 1015.0 - 0.0 - - - - - - -
25/12:30am 23.5 SSW 8 9 1015.2 - 0.0 - - - - - - -
25/12:00am 23.3 WSW 9 10 1015.2 - 0.0 - - - - - - -
 
Date/Time
EST
Temp
°C
Wind Pressure Rain since
9am
mm
Weather Cloud Vis
km
Sea
Height
m
Swell
Dir  Spd
kts
Gust
kts
hPa Trend Height
m
Period
s
Dir
24/11:30pm 23.2 WSW 9 9 1015.5 - 0.0 - - - - - - -
24/11:00pm 23.4 SW 6 8 1015.5 - 0.0 - - - - - - -
24/10:30pm 23.4 SSW 5 7 1015.7 - 0.0 - - - - - - -
24/10:00pm 24.1 SSE 9 11 1015.7 - 0.0 - - - - - - -
24/09:30pm 23.1 ESE 8 9 1015.6 - 0.0 - - - - - - -
24/09:00pm 23.3 ESE 8 9 1015.3 - 0.0 - - - - - - -
24/08:30pm 23.8 SE 8 10 1015.2 - 0.0 - - - - - - -
24/08:00pm 23.7 ESE 9 11 1014.9 - 0.0 - - - - - - -
24/07:30pm 23.8 ESE 9 11 1014.6 - 0.0 - - - - - - -
24/07:00pm 23.6 ESE 10 12 1014.3 - 0.0 - - - - - - -
24/06:30pm 23.8 ESE 10 13 1013.9 - 0.0 - - - - - - -
24/06:00pm 24.1 ESE 9 11 1013.6 - 0.0 - - - - - - -
24/05:30pm 24.7 ESE 8 10 1013.6 - 0.0 - - - - - - -
24/05:00pm 25.0 ESE 13 15 1013.4 - 0.0 - - - - - - -
24/04:30pm 26.1 ESE 10 13 1013.2 - 0.0 - - - - - - -
24/04:00pm 26.7 SE 9 11 1012.9 - 0.0 - - - - - - -
24/03:30pm 26.3 SE 11 13 1013.0 - 0.0 - - - - - - -
24/03:00pm 26.8 SE 12 15 1013.2 - 0.0 - - - - - - -
24/02:30pm 26.7 SE 10 13 1013.6 - 0.0 - - - - - - -
24/02:00pm 26.2 SE 8 10 1013.9 - 0.0 - - - - - - -
24/01:30pm 25.6 SSE 10 11 1014.5 - 0.0 - - - - - - -
24/01:00pm 25.7 SSE 10 11 1014.9 - 0.0 - - - - - - -
24/12:30pm 25.6 SSE 10 11 1015.0 - 0.0 - - - - - - -
24/12:00pm 25.3 SSE 11 13 1015.4 - 0.0 - - - - - - -
24/11:30am 25.3 SSE 11 14 1015.9 - 0.0 - - - - - - -
24/11:00am 25.3 SSE 10 11 1016.0 - 0.0 - - - - - - -
24/10:30am 24.5 SSE 11 12 1016.0 - 0.0 - - - - - - -
24/10:00am 24.4 SSE 11 13 1016.2 - 0.0 - - - - - - -
24/09:30am 24.0 SSE 13 15 1016.0 - 0.0 - - - - - - -
24/09:00am 23.9 SSE 13 15 1015.6 - 0.0 Haze Mostly clear 18 - - - -
24/08:30am 23.8 SSE 15 17 1015.4 - 0.0 - - - - - - -
24/08:00am 23.6 SSE 15 16 1015.0 - 0.0 - - - - - - -
24/07:30am 23.6 SSE 14 15 1014.7 - 0.0 - - - - - - -
24/07:00am 23.5 SSE 12 14 1014.5 - 0.0 - - - - - - -
24/06:30am 23.4 SSE 12 13 1014.1 - 0.0 - - - - - - -
24/06:00am 23.5 SSE 13 15 1013.8 - 0.0 - - - - - - -
24/05:30am 23.6 SSE 12 13 1013.6 - 0.0 - - - - - - -
24/05:00am 23.6 S 11 12 1013.4 - 0.0 - - - - - - -
24/04:30am 23.6 S 10 11 1013.2 - 0.0 - - - - - - -
24/04:00am 23.5 S 9 12 1013.3 - 0.0 - - - - - - -
24/03:30am 23.6 S 11 13 1013.3 - 0.0 - - - - - - -
24/03:00am 23.7 SSE 10 12 1013.3 - 0.0 - - - - - - -
24/02:30am 23.4 S 7 8 1013.6 - 0.0 - - - - - - -
24/02:00am 23.6 S 7 8 1013.7 - 0.0 - - - - - - -
24/01:30am 23.4 SW 8 9 1013.9 - 0.0 - - - - - - -
24/01:00am 23.4 SSW 9 11 1014.0 - 0.0 - - - - - - -
24/12:30am 23.5 SSW 10 11 1013.9 - 0.0 - - - - - - -
24/12:00am 23.6 SSW 9 11 1014.0 - 0.0 - - - - - - -
 
Date/Time
EST
Temp
°C
Wind Pressure Rain since
9am
mm
Weather Cloud Vis
km
Sea
Height
m
Swell
Dir  Spd
kts
Gust
kts
hPa Trend Height
m
Period
s
Dir
23/11:30pm 23.8 S 11 13 1014.2 - 0.0 - - - - - - -
23/11:00pm 23.8 SSE 10 12 1014.2 - 0.0 - - - - - - -
23/10:30pm 23.9 SSE 11 13 1014.3 - 0.0 - - - - - - -
23/10:00pm 24.1 SSE 11 11 1014.3 - 0.0 - - - - - - -
23/09:30pm 24.0 SSE 10 11 1014.1 - 0.0 - - - - - - -
23/09:00pm 24.0 SSE 9 10 1013.8 - 0.0 - - - - - - -
23/08:30pm 24.1 SSE 9 10 1013.6 - 0.0 - - - - - - -
23/08:00pm 24.2 SE 9 11 1013.3 - 0.0 - - - - - - -
23/07:30pm 24.1 SE 10 12 1013.1 - 0.0 - - - - - - -
23/07:00pm 24.2 ESE 10 11 1012.9 - 0.0 - - - - - - -
23/06:30pm 24.0 ESE 8 10 1012.7 - 0.0 - - - - - - -
23/06:00pm 24.3 ESE 8 10 1012.5 - 0.0 - - - - - - -
23/05:30pm 24.7 ESE 7 10 1012.4 - 0.0 - - - - - - -
23/05:00pm 25.4 ESE 9 11 1012.0 - 0.0 - - - - - - -
23/04:30pm 26.0 SE 9 11 1011.8 - 0.0 - - - - - - -
23/04:00pm 26.8 ESE 9 11 1011.8 - 0.0 - - - - - - -
23/03:30pm 26.8 ESE 9 11 1011.9 - 0.0 - - - - - - -
23/03:00pm 27.0 ESE 10 13 1011.9 - 0.0 - - - - - - -
23/02:30pm 26.6 SE 10 12 1012.3 - 0.0 - - - - - - -
23/02:00pm 25.9 SE 9 11 1012.7 - 0.0 - - - - - - -
23/01:30pm 25.7 SSE 9 11 1013.1 - 0.0 - - - - - - -
23/01:00pm 25.6 SSE 9 10 1013.5 - 0.0 - - - - - - -
23/12:30pm 25.2 SSE 10 11 1013.9 - 0.0 - - - - - - -
23/12:00pm 24.7 SSE 9 10 1014.1 - 0.0 - - - - - - -
23/11:30am 25.1 SSE 7 8 1014.4 - 0.0 - - - - - - -
23/11:00am 24.5 S 8 9 1014.8 - 0.0 - - - - - - -
23/10:30am 24.7 SSW 7 8 1015.1 - 0.0 - - - - - - -
23/10:00am 23.6 SW 5 6 1015.3 - 0.0 - - - - - - -
23/09:30am 22.9 SW 6 8 1015.3 - 0.0 - - - - - - -
23/09:00am 23.0 SW 7 8 1015.2 - 0.0 Distant precip. Mostly cloudy 18 - - - -
23/08:30am 22.6 WSW 7 9 1015.1 - 0.0 - - - - - - -
23/08:00am 22.5 SW 8 9 1014.9 - 0.0 - - - - - - -
23/07:30am 22.2 SW 6 7 1014.6 - 0.0 - - - - - - -
23/07:00am 22.4 SW 7 9 1014.3 - 0.0 - - - - - - -
23/06:30am 22.5 SW 8 9 1014.1 - 0.0 - - - - - - -
23/06:00am 22.3 SW 6 7 1013.8 - 0.0 - - - - - - -
23/05:30am 22.2 SSW 6 7 1013.4 - 0.0 - - - - - - -
23/05:00am 22.4 SW 7 8 1013.3 - 0.0 - - - - - - -
23/04:30am 22.3 SW 9 10 1013.2 - 0.0 - - - - - - -
23/04:00am 22.7 SW 9 11 1013.2 - 0.0 - - - - - - -

Other Formats:

Comma delimited format used in spreadsheet applications
http://www.bom.gov.au/fwo/IDQ60701/IDQ60701.94285.axf

JavaScript Object Notation format (JSON) in row-major order
http://www.bom.gov.au/fwo/IDQ60701/IDQ60701.94285.json